Time;durP1;ratioP1;P1;durP2;ratioP2;P2;SDS_P1;SDS_P2;PMS_P1;PMS_P2;Temp;Humidity;BMP_temperature;BMP_pressure;BME280_temperature;BME280_humidity;BME280_pressure;Samples;Min_cycle;Max_cycle;Signal;HPM_P1;HPM_P2
2022/08/31 00:06:15;;;;;;;0.00;0.00;;;;;;;17.20;75.36;102061.13;4999609;28;20040;-70
2022/08/31 00:08:40;;;;;;;0.03;0.03;;;;;;;17.11;76.34;102067.34;5003178;28;20037;-71
2022/08/31 00:11:08;;;;;;;0.00;0.00;;;;;;;17.11;75.52;102049.22;5000390;28;20248;-70
2022/08/31 00:13:35;;;;;;;0.00;0.00;;;;;;;17.08;76.17;102057.63;5003597;28;20038;-71
2022/08/31 00:16:01;;;;;;;0.00;0.00;;;;;;;17.04;76.27;102058.88;5018340;28;20436;-70
2022/08/31 00:18:26;;;;;;;0.00;0.00;;;;;;;16.99;76.41;102056.59;5003082;28;20033;-70
2022/08/31 00:20:51;;;;;;;0.00;0.00;;;;;;;16.97;76.68;102057.69;5001336;28;20026;-70
2022/08/31 00:23:16;;;;;;;0.00;0.00;;;;;;;17.06;76.02;102057.78;5002136;28;20806;-70
2022/08/31 00:25:44;;;;;;;0.00;0.00;;;;;;;16.94;76.51;102050.66;4998952;28;20073;-70
2022/08/31 00:28:11;;;;;;;0.00;0.00;;;;;;;16.96;76.45;102051.41;5000394;28;20099;-69
2022/08/31 00:30:36;;;;;;;0.20;0.05;;;;;;;16.96;76.41;102054.13;5004281;28;20030;-69
2022/08/31 00:33:03;;;;;;;0.00;0.00;;;;;;;16.93;76.60;102052.53;5007127;28;20388;-70
2022/08/31 00:35:32;;;;;;;0.00;0.00;;;;;;;16.87;76.86;102052.16;5017855;28;20030;-70
2022/08/31 00:37:58;;;;;;;0.00;0.00;;;;;;;16.90;76.70;102065.47;5000440;28;20772;-70
2022/08/31 00:40:24;;;;;;;0.00;0.00;;;;;;;16.89;76.77;102061.91;4998717;28;20113;-69
2022/08/31 00:42:49;;;;;;;0.00;0.00;;;;;;;16.84;77.13;102057.84;4998158;28;20033;-70
2022/08/31 00:45:15;;;;;;;0.00;0.00;;;;;;;16.86;77.19;102061.28;5020953;28;20033;-70
2022/08/31 00:47:40;;;;;;;0.00;0.00;;;;;;;16.68;77.41;102037.47;5002555;28;20030;-70
2022/08/31 00:50:08;;;;;;;0.00;0.00;;;;;;;16.81;77.01;102053.56;5008407;28;20335;-69
2022/08/31 00:52:37;;;;;;;0.00;0.00;;;;;;;16.73;77.71;102047.91;5004427;28;20059;-70
2022/08/31 00:55:12;;;;;;;0.00;0.00;;;;;;;16.65;77.92;102051.28;5007950;28;20032;-71
2022/08/31 00:57:40;;;;;;;0.00;0.00;;;;;;;16.74;77.46;102049.63;5004768;28;20030;-70
2022/08/31 01:00:12;;;;;;;0.00;0.00;;;;;;;16.68;77.66;102044.75;5003377;28;20033;-71
2022/08/31 01:02:38;;;;;;;0.00;0.00;;;;;;;16.71;77.56;102050.78;5004945;28;20021;-71
2022/08/31 01:05:04;;;;;;;0.00;0.00;;;;;;;16.39;77.97;102002.84;5006533;28;20045;-70
2022/08/31 01:07:30;;;;;;;0.00;0.00;;;;;;;16.66;77.84;102046.75;5007142;28;20053;-70
2022/08/31 01:09:55;;;;;;;0.00;0.00;;;;;;;16.43;78.23;102027.84;5003574;28;20061;-70
2022/08/31 01:12:21;;;;;;;0.10;0.10;;;;;;;16.57;78.22;102059.19;4998230;28;20046;-70
2022/08/31 01:14:46;;;;;;;0.00;0.00;;;;;;;16.43;77.89;102026.00;5006030;28;20022;-70
2022/08/31 01:17:12;;;;;;;0.00;0.00;;;;;;;16.53;78.27;102049.63;5005626;28;20464;-70
2022/08/31 01:19:45;;;;;;;0.00;0.00;;;;;;;16.54;78.02;102052.19;4999774;28;20033;-69
2022/08/31 01:22:23;;;;;;;0.00;0.00;;;;;;;16.51;78.07;102047.03;4998316;28;20026;-70
2022/08/31 01:24:50;;;;;;;0.00;0.00;;;;;;;16.46;78.46;102047.44;5008605;28;20042;-70
2022/08/31 01:27:21;;;;;;;0.00;0.00;;;;;;;16.25;78.52;102024.84;5001989;28;20105;-73
2022/08/31 01:29:46;;;;;;;0.00;0.00;;;;;;;16.37;78.76;102041.91;5002202;28;20033;-69
2022/08/31 01:32:11;;;;;;;0.00;0.00;;;;;;;16.35;78.46;102047.44;5004863;28;20030;-71
2022/08/31 01:34:37;;;;;;;0.00;0.00;;;;;;;16.13;79.00;102010.47;5000075;28;20456;-71
2022/08/31 01:37:02;;;;;;;0.00;0.00;;;;;;;16.25;78.66;102038.38;4999891;28;20050;-70
2022/08/31 01:39:27;;;;;;;0.00;0.00;;;;;;;16.28;78.77;102036.28;4995997;28;20036;-71
2022/08/31 01:41:53;;;;;;;0.00;0.00;;;;;;;16.23;79.50;102049.34;5000784;28;20029;-71
2022/08/31 01:44:22;;;;;;;0.00;0.00;;;;;;;16.26;79.05;102048.25;5002050;28;20034;-70
2022/08/31 01:46:47;;;;;;;0.00;0.00;;;;;;;16.24;79.30;102047.50;5003083;28;20030;-71
2022/08/31 01:49:14;;;;;;;0.05;0.00;;;;;;;16.27;79.06;102052.66;5000485;28;20057;-71
2022/08/31 01:51:41;;;;;;;0.00;0.00;;;;;;;16.12;79.48;102042.09;5000561;28;20070;-71
2022/08/31 01:54:07;;;;;;;0.00;0.00;;;;;;;15.86;80.11;102015.31;5006223;28;20029;-71
2022/08/31 01:56:38;;;;;;;0.00;0.00;;;;;;;16.08;79.67;102048.75;4999076;28;20400;-71
2022/08/31 01:59:05;;;;;;;0.00;0.00;;;;;;;16.19;78.94;102050.56;5004519;28;20121;-70
2022/08/31 02:01:36;;;;;;;0.00;0.00;;;;;;;16.12;79.17;102047.50;4999136;28;20034;-71
2022/08/31 02:04:04;;;;;;;0.00;0.00;;;;;;;16.00;79.83;102048.53;5003737;28;20041;-71
2022/08/31 02:06:30;;;;;;;0.00;0.00;;;;;;;15.89;80.07;102035.88;4996680;28;20567;-71
2022/08/31 02:08:55;;;;;;;0.00;0.00;;;;;;;15.74;80.20;102017.16;5001529;28;20033;-71
2022/08/31 02:11:20;;;;;;;0.00;0.00;;;;;;;15.95;79.64;102056.19;5001136;28;20089;-71
2022/08/31 02:13:45;;;;;;;0.00;0.00;;;;;;;15.85;79.88;102043.34;4998573;28;20095;-71
2022/08/31 02:16:11;;;;;;;0.00;0.00;;;;;;;15.84;80.21;102047.03;4999326;28;20459;-72
2022/08/31 02:18:36;;;;;;;0.00;0.00;;;;;;;15.57;80.33;102021.22;5002613;28;20029;-71
2022/08/31 02:21:03;;;;;;;0.00;0.00;;;;;;;15.84;79.68;102048.91;5000652;28;20033;-71
2022/08/31 02:23:28;;;;;;;0.00;0.00;;;;;;;15.80;80.02;102058.25;4997309;28;20034;-71
2022/08/31 02:25:54;;;;;;;0.00;0.00;;;;;;;15.78;80.20;102060.22;5001470;28;20026;-71
2022/08/31 02:28:20;;;;;;;0.00;0.00;;;;;;;15.67;79.76;102045.69;5005603;28;20779;-71
2022/08/31 02:30:45;;;;;;;0.00;0.00;;;;;;;15.67;79.90;102044.84;5000793;28;20026;-71
2022/08/31 02:33:10;;;;;;;0.00;0.00;;;;;;;15.70;80.00;102058.97;5002618;28;20069;-71
2022/08/31 02:35:37;;;;;;;0.00;0.00;;;;;;;15.69;79.95;102056.41;4998665;28;20026;-71
2022/08/31 02:38:04;;;;;;;0.00;0.00;;;;;;;15.69;79.64;102056.41;4993826;28;20391;-71
2022/08/31 02:40:29;;;;;;;0.00;0.00;;;;;;;15.71;79.15;102055.28;5002353;28;20088;-71
2022/08/31 02:42:54;;;;;;;0.00;0.00;;;;;;;15.63;79.58;102055.03;4998421;28;20504;-71
2022/08/31 02:45:21;;;;;;;0.00;0.00;;;;;;;15.57;79.76;102053.69;5000797;28;20040;-72
2022/08/31 02:47:46;;;;;;;0.00;0.00;;;;;;;15.42;80.02;102046.81;4985333;28;20484;-72
2022/08/31 02:50:11;;;;;;;0.00;0.00;;;;;;;15.52;79.89;102050.50;5000526;28;20149;-72
2022/08/31 02:52:36;;;;;;;0.00;0.00;;;;;;;15.53;79.70;102059.47;5003370;28;20025;-72
2022/08/31 02:55:03;;;;;;;0.00;0.00;;;;;;;15.37;80.36;102057.97;5006397;28;20029;-72
2022/08/31 02:57:29;;;;;;;0.00;0.00;;;;;;;15.28;80.23;102045.19;5001004;28;20030;-72
2022/08/31 02:59:54;;;;;;;0.00;0.00;;;;;;;15.34;80.14;102051.97;5002043;28;20052;-72
2022/08/31 03:02:21;;;;;;;0.00;0.00;;;;;;;15.29;79.90;102049.63;5001935;28;20156;-71
2022/08/31 03:04:47;;;;;;;0.00;0.00;;;;;;;15.20;80.26;102050.34;4997649;28;20171;-71
2022/08/31 03:07:12;;;;;;;0.10;0.00;;;;;;;15.24;79.90;102055.38;5003589;28;20528;-71
2022/08/31 03:09:37;;;;;;;0.00;0.00;;;;;;;15.24;79.07;102054.53;5001819;28;20026;-71
2022/08/31 03:12:03;;;;;;;0.00;0.00;;;;;;;15.25;79.02;102054.41;5000310;28;20044;-72
2022/08/31 03:14:28;;;;;;;0.00;0.00;;;;;;;15.17;78.64;102045.16;5000015;28;20030;-71
2022/08/31 03:16:53;;;;;;;0.10;0.10;;;;;;;15.23;78.47;102058.22;4992855;28;20085;-71
2022/08/31 03:19:20;;;;;;;0.00;0.00;;;;;;;15.27;77.95;102054.28;5000022;28;20057;-71
2022/08/31 03:21:45;;;;;;;0.00;0.00;;;;;;;15.18;77.94;102050.47;4995529;28;20129;-72
2022/08/31 03:24:12;;;;;;;0.00;0.00;;;;;;;15.21;77.83;102052.94;4959942;28;1063770;-72
2022/08/31 03:26:37;;;;;;;0.00;0.00;;;;;;;15.16;78.12;102060.56;5000237;28;20030;-72
2022/08/31 03:29:02;;;;;;;0.00;0.00;;;;;;;15.13;78.16;102056.22;5002545;28;20477;-72
2022/08/31 03:31:29;;;;;;;0.00;0.00;;;;;;;14.95;78.25;102036.91;4996543;28;20389;-72
2022/08/31 03:33:56;;;;;;;0.00;0.00;;;;;;;15.02;78.19;102058.91;5005346;28;20068;-72
2022/08/31 03:36:21;;;;;;;0.05;0.05;;;;;;;14.95;78.67;102053.13;5005412;28;20128;-72
2022/08/31 03:38:46;;;;;;;0.00;0.00;;;;;;;14.92;78.47;102061.47;5006767;28;20041;-71
2022/08/31 03:41:15;;;;;;;0.00;0.00;;;;;;;14.92;78.64;102057.91;5006147;28;20485;-72
2022/08/31 03:43:40;;;;;;;0.43;0.00;;;;;;;14.72;79.47;102048.59;5007235;28;20066;-72
2022/08/31 03:46:06;;;;;;;0.00;0.00;;;;;;;14.81;78.80;102050.63;5005772;28;20128;-72
2022/08/31 03:48:31;;;;;;;0.00;0.00;;;;;;;14.90;78.76;102059.84;4996680;28;20100;-72
2022/08/31 03:50:57;;;;;;;0.00;0.00;;;;;;;14.63;78.77;102023.09;5000669;28;20496;-71
2022/08/31 03:53:22;;;;;;;0.00;0.00;;;;;;;14.68;78.86;102037.13;5003693;28;20117;-71
2022/08/31 03:55:47;;;;;;;0.00;0.00;;;;;;;14.72;78.78;102054.00;5004021;28;20017;-72
2022/08/31 03:58:13;;;;;;;0.00;0.00;;;;;;;14.49;79.10;102018.75;5006659;28;20365;-72
2022/08/31 04:00:38;;;;;;;0.00;0.00;;;;;;;14.73;78.96;102062.03;5007524;28;20771;-71
2022/08/31 04:03:03;;;;;;;0.00;0.00;;;;;;;14.75;78.74;102068.16;5003900;28;20017;-70
2022/08/31 04:05:34;;;;;;;0.00;0.00;;;;;;;14.69;79.05;102061.41;5001027;28;20391;-70
2022/08/31 04:07:59;;;;;;;0.00;0.00;;;;;;;14.69;78.93;102069.50;5003927;28;20045;-69
2022/08/31 04:10:25;;;;;;;0.10;0.10;;;;;;;14.72;78.38;102063.00;5005234;28;20061;-70
2022/08/31 04:12:50;;;;;;;0.35;0.10;;;;;;;14.61;78.86;102060.19;5000459;28;20026;-69
2022/08/31 04:15:16;;;;;;;0.00;0.00;;;;;;;14.60;78.15;102062.06;5005711;28;20554;-72
2022/08/31 04:17:43;;;;;;;0.00;0.00;;;;;;;14.54;78.51;102071.50;5000455;28;20458;-72
2022/08/31 04:20:09;;;;;;;0.00;0.00;;;;;;;14.54;78.11;102067.91;5002680;28;20656;-72
2022/08/31 04:22:34;;;;;;;0.00;0.00;;;;;;;14.49;78.38;102067.41;5002790;28;20026;-72
2022/08/31 04:24:59;;;;;;;0.08;0.08;;;;;;;14.51;77.99;102076.25;5007495;28;20038;-71
2022/08/31 04:27:25;;;;;;;0.00;0.00;;;;;;;14.35;77.87;102061.19;5005428;28;20038;-71
2022/08/31 04:29:50;;;;;;;0.00;0.00;;;;;;;14.40;77.69;102077.06;5001163;28;20049;-71
2022/08/31 04:32:15;;;;;;;0.00;0.00;;;;;;;14.45;77.11;102076.69;5003893;28;20053;-73
2022/08/31 04:34:41;;;;;;;0.00;0.00;;;;;;;14.40;77.31;102077.94;5000294;28;20089;-72
2022/08/31 04:37:08;;;;;;;0.00;0.00;;;;;;;14.34;77.49;102080.22;5004963;28;20511;-71
2022/08/31 04:39:34;;;;;;;0.00;0.00;;;;;;;14.25;76.88;102069.13;4998746;28;20065;-72
2022/08/31 04:41:59;;;;;;;0.00;0.00;;;;;;;14.19;77.18;102069.56;5005208;28;20054;-71
2022/08/31 04:44:25;;;;;;;0.00;0.00;;;;;;;14.17;76.83;102057.19;5000214;28;20033;-73
2022/08/31 04:46:50;;;;;;;0.00;0.00;;;;;;;14.21;76.81;102075.72;5001138;28;20041;-72
2022/08/31 04:49:16;;;;;;;0.00;0.00;;;;;;;14.06;76.40;102050.72;5003428;28;20041;-71
2022/08/31 04:51:41;;;;;;;0.00;0.00;;;;;;;14.21;76.64;102072.16;5005625;28;20022;-72
2022/08/31 04:54:09;;;;;;;0.00;0.00;;;;;;;14.23;75.93;102072.91;5007977;28;20033;-71
2022/08/31 04:56:38;;;;;;;0.00;0.00;;;;;;;14.27;75.96;102081.66;5004570;28;20021;-71
2022/08/31 04:59:06;;;;;;;0.63;0.10;;;;;;;14.25;75.62;102079.94;5007472;28;20816;-71
2022/08/31 05:01:35;;;;;;;0.00;0.00;;;;;;;14.21;75.62;102083.84;5002729;28;20045;-71
2022/08/31 05:04:01;;;;;;;0.10;0.10;;;;;;;14.24;75.58;102085.44;5009331;28;20480;-72
2022/08/31 05:06:29;;;;;;;0.00;0.00;;;;;;;14.09;75.65;102098.22;5003456;28;20033;-72
2022/08/31 05:08:57;;;;;;;0.00;0.00;;;;;;;14.13;75.32;102088.09;5004825;28;20025;-71
2022/08/31 05:11:24;;;;;;;0.00;0.00;;;;;;;14.04;75.70;102076.09;4999324;28;20417;-71
2022/08/31 05:13:51;;;;;;;0.00;0.00;;;;;;;14.21;74.92;102093.75;5000030;28;20392;-71
2022/08/31 05:16:16;;;;;;;0.00;0.00;;;;;;;13.94;75.20;102063.28;5006287;28;20053;-71
2022/08/31 05:18:43;;;;;;;0.00;0.00;;;;;;;14.15;75.15;102088.84;5007754;28;20233;-71
2022/08/31 05:21:12;;;;;;;0.00;0.00;;;;;;;14.13;75.21;102097.03;4999526;28;20030;-71
2022/08/31 05:23:38;;;;;;;0.00;0.00;;;;;;;14.11;74.62;102090.88;5001101;28;20128;-72
2022/08/31 05:26:04;;;;;;;0.08;0.00;;;;;;;14.06;75.05;102093.91;5004756;28;20025;-72
2022/08/31 05:28:32;;;;;;;0.00;0.00;;;;;;;14.14;74.86;102100.59;4992410;28;20091;-71
2022/08/31 05:30:57;;;;;;;0.00;0.00;;;;;;;14.12;74.81;102099.84;4999263;28;20105;-71
2022/08/31 05:33:22;;;;;;;0.00;0.00;;;;;;;13.99;74.97;102083.69;5004568;28;20038;-71
2022/08/31 05:35:48;;;;;;;0.00;0.00;;;;;;;14.03;74.58;102099.53;5006580;28;20394;-72
2022/08/31 05:38:13;;;;;;;0.00;0.00;;;;;;;14.10;74.64;102103.53;5008701;28;20026;-72
2022/08/31 05:40:38;;;;;;;0.00;0.00;;;;;;;13.99;74.78;102075.59;5006374;28;20392;-74
2022/08/31 05:43:04;;;;;;;0.00;0.00;;;;;;;14.09;74.53;102096.41;5001979;28;20073;-74
2022/08/31 05:45:29;;;;;;;0.00;0.00;;;;;;;14.19;73.61;102101.09;5005400;28;20025;-74
2022/08/31 05:47:54;;;;;;;0.00;0.00;;;;;;;14.27;73.23;102101.41;5007662;28;20026;-73
2022/08/31 05:50:20;;;;;;;0.00;0.00;;;;;;;14.04;73.70;102095.00;5003564;28;20080;-73
2022/08/31 05:52:45;;;;;;;0.03;0.03;;;;;;;14.07;73.63;102087.53;5000406;28;20062;-74
2022/08/31 05:55:11;;;;;;;0.00;0.00;;;;;;;14.19;73.28;102095.72;5004650;28;20028;-74
2022/08/31 05:57:39;;;;;;;0.00;0.00;;;;;;;14.22;73.46;102109.00;5000222;28;20036;-72
2022/08/31 06:00:06;;;;;;;0.00;0.00;;;;;;;14.22;72.91;102109.88;5003681;28;20025;-72
2022/08/31 06:02:31;;;;;;;0.00;0.00;;;;;;;14.30;73.01;102112.00;5003550;28;20033;-73
2022/08/31 06:04:56;;;;;;;0.10;0.10;;;;;;;14.39;72.42;102110.47;4997589;28;20029;-72
2022/08/31 06:07:22;;;;;;;0.00;0.00;;;;;;;14.47;72.33;102113.47;5004993;28;20070;-72
2022/08/31 06:09:47;;;;;;;0.10;0.10;;;;;;;14.46;71.93;102106.34;5006463;28;20067;-72
2022/08/31 06:12:14;;;;;;;0.00;0.00;;;;;;;14.64;70.98;102122.13;5006508;28;20464;-71
2022/08/31 06:14:40;;;;;;;0.00;0.00;;;;;;;14.64;70.88;102116.72;5004204;28;20468;-74
2022/08/31 06:17:06;;;;;;;0.00;0.00;;;;;;;14.78;70.95;102126.53;5007707;28;20373;-72
2022/08/31 06:19:31;;;;;;;0.00;0.00;;;;;;;14.76;70.19;102132.06;5004653;28;20032;-75
2022/08/31 06:21:56;;;;;;;0.00;0.00;;;;;;;14.75;70.26;102124.06;5005155;28;20030;-75
2022/08/31 06:24:22;;;;;;;0.00;0.00;;;;;;;14.66;69.87;102112.94;4988346;28;20480;-72
2022/08/31 06:26:51;;;;;;;0.10;0.10;;;;;;;14.62;70.20;102115.97;5003598;28;20049;-75
2022/08/31 06:29:16;;;;;;;0.00;0.00;;;;;;;14.43;69.99;102089.50;4999597;28;20056;-75
2022/08/31 06:31:45;;;;;;;0.00;0.00;;;;;;;14.76;70.19;102128.50;5003927;28;20109;-71
2022/08/31 06:34:12;;;;;;;0.00;0.00;;;;;;;14.69;70.18;102118.16;5005444;28;20401;-74
2022/08/31 06:36:37;;;;;;;0.00;0.00;;;;;;;14.75;70.02;102122.25;5003428;28;20033;-67
2022/08/31 06:39:03;;;;;;;0.03;0.03;;;;;;;14.84;69.27;102126.94;5003153;28;20034;-72
2022/08/31 06:41:34;;;;;;;0.10;0.10;;;;;;;14.77;69.26;102133.81;5004177;28;20042;-74
2022/08/31 06:44:03;;;;;;;0.00;0.00;;;;;;;14.79;70.42;102134.56;5002928;28;20041;-74
2022/08/31 06:46:31;;;;;;;0.00;0.00;;;;;;;14.82;69.92;102138.84;5006387;28;20079;-71
2022/08/31 06:48:56;;;;;;;0.00;0.00;;;;;;;15.02;70.04;102133.75;5004637;28;20033;-69
2022/08/31 06:51:23;;;;;;;0.00;0.00;;;;;;;14.98;69.36;102123.19;4996716;28;20555;-74
2022/08/31 06:53:49;;;;;;;0.00;0.00;;;;;;;15.05;69.32;102130.84;5003683;28;20026;-74
2022/08/31 06:56:24;;;;;;;0.00;0.00;;;;;;;15.06;69.45;102135.25;4987657;28;20064;-74
2022/08/31 06:58:50;;;;;;;0.00;0.00;;;;;;;15.08;69.89;102144.13;5000044;28;20032;-73
2022/08/31 07:01:21;;;;;;;0.00;0.00;;;;;;;15.18;69.62;102138.88;5004458;28;20036;-73
2022/08/31 07:03:48;;;;;;;0.00;0.00;;;;;;;15.27;69.47;102143.56;5002804;28;20022;-73
2022/08/31 07:06:18;;;;;;;0.00;0.00;;;;;;;15.27;69.54;102151.69;4999763;28;20456;-74
2022/08/31 07:08:45;;;;;;;0.00;0.00;;;;;;;15.36;69.34;102152.81;5000063;28;20041;-75
2022/08/31 07:11:19;;;;;;;0.00;0.00;;;;;;;15.34;69.46;102155.66;5004893;28;20133;-75
2022/08/31 07:13:46;;;;;;;0.00;0.00;;;;;;;15.42;69.62;102158.63;4998756;28;20094;-74
2022/08/31 07:16:14;;;;;;;0.00;0.00;;;;;;;15.61;68.72;102165.31;5008091;28;20029;-72
2022/08/31 07:18:40;;;;;;;0.00;0.00;;;;;;;15.58;69.26;102160.13;5001651;28;20037;-76
2022/08/31 07:21:17;;;;;;;0.10;0.00;;;;;;;15.78;68.57;102165.81;4997276;28;20026;-75
2022/08/31 07:23:43;;;;;;;0.00;0.00;;;;;;;15.89;67.90;102166.72;5002132;28;20034;-73
2022/08/31 07:26:24;;;;;;;0.00;0.00;;;;;;;16.02;67.96;102172.03;5004137;28;20014;-74
2022/08/31 07:28:51;;;;;;;0.00;0.00;;;;;;;16.17;68.29;102169.06;5006569;28;20026;-69
2022/08/31 07:31:18;;;;;;;0.10;0.00;;;;;;;16.21;68.08;102159.69;5007171;28;20069;-76
2022/08/31 07:33:44;;;;;;;0.00;0.00;;;;;;;16.25;67.99;102169.31;4998776;28;20408;-72
2022/08/31 07:36:12;;;;;;;0.00;0.00;;;;;;;16.17;66.81;102172.63;5005446;28;20072;-75
2022/08/31 07:44:07;;;;;;;0.00;0.00;;;;;;;16.09;67.62;102166.97;5004050;28;20036;-73
2022/08/31 07:46:34;;;;;;;0.00;0.00;;;;;;;16.14;68.14;102166.63;4997003;28;20105;-75
2022/08/31 07:48:59;;;;;;;0.00;0.00;;;;;;;16.27;68.50;102167.34;4999750;28;20034;-72
2022/08/31 07:51:25;;;;;;;0.00;0.00;;;;;;;16.45;68.97;102159.56;5001694;28;20187;-72
2022/08/31 07:53:52;;;;;;;0.00;0.00;;;;;;;16.74;67.70;102166.25;5004247;28;20087;-74
2022/08/31 07:56:18;;;;;;;0.00;0.00;;;;;;;16.89;66.49;102175.84;5001542;28;20036;-74
2022/08/31 07:58:46;;;;;;;0.00;0.00;;;;;;;17.06;65.64;102171.75;5005726;28;20021;-75
2022/08/31 08:01:13;;;;;;;0.00;0.00;;;;;;;17.13;64.43;102177.50;5001015;28;20053;-73
2022/08/31 08:03:42;;;;;;;0.00;0.00;;;;;;;17.28;66.95;102174.44;4995678;28;20038;-72
2022/08/31 08:06:14;;;;;;;0.17;0.00;;;;;;;17.44;64.60;102179.44;4999485;28;20514;-73
2022/08/31 08:08:41;;;;;;;0.00;0.00;;;;;;;17.50;64.34;102165.34;5001955;28;20032;-75
2022/08/31 08:11:07;;;;;;;0.00;0.00;;;;;;;17.42;63.48;102181.41;4997433;28;20065;-72
2022/08/31 08:13:32;;;;;;;0.00;0.00;;;;;;;17.31;64.44;102177.78;5005731;28;20065;-70
2022/08/31 08:15:58;;;;;;;0.00;0.00;;;;;;;17.43;64.88;102185.84;5006021;28;20034;-74
2022/08/31 08:18:23;;;;;;;0.00;0.00;;;;;;;17.14;65.35;102134.94;4998514;28;20559;-76
2022/08/31 08:20:51;;;;;;;0.00;0.00;;;;;;;17.54;64.79;102185.81;5000944;28;20052;-74
2022/08/31 08:23:17;;;;;;;0.00;0.00;;;;;;;17.53;64.50;102190.34;5006486;28;20025;-75
2022/08/31 08:25:44;;;;;;;0.00;0.00;;;;;;;17.80;64.05;102188.94;5020821;28;20108;-76
2022/08/31 08:28:16;;;;;;;0.00;0.00;;;;;;;18.10;63.87;102189.16;5014838;28;20041;-71
2022/08/31 08:30:43;;;;;;;0.00;0.00;;;;;;;18.18;63.13;102170.28;5007230;28;20432;-72
2022/08/31 08:33:09;;;;;;;0.00;0.00;;;;;;;18.46;63.15;102161.50;5009059;28;20053;-74
2022/08/31 08:35:34;;;;;;;0.00;0.00;;;;;;;18.79;62.63;102178.47;5002017;28;20065;-74
2022/08/31 08:37:59;;;;;;;0.00;0.00;;;;;;;18.90;62.39;102191.91;5005548;28;20034;-74
2022/08/31 08:40:41;;;;;;;0.00;0.00;;;;;;;18.83;61.67;102182.59;5006437;28;20037;-74
2022/08/31 08:43:09;;;;;;;0.00;0.00;;;;;;;18.65;62.13;102166.97;5004834;28;20040;-77
2022/08/31 08:45:35;;;;;;;0.00;0.00;;;;;;;18.78;61.89;102187.63;5007993;28;20049;-74
2022/08/31 08:48:00;;;;;;;0.00;0.00;;;;;;;18.59;62.09;102192.88;5008405;28;20080;-76
2022/08/31 08:50:27;;;;;;;0.00;0.00;;;;;;;18.72;63.55;102178.16;5005809;28;20120;-75
2022/08/31 08:52:54;;;;;;;0.00;0.00;;;;;;;19.00;63.80;102162.03;5006864;28;20116;-78
2022/08/31 08:55:21;;;;;;;0.00;0.00;;;;;;;19.30;63.72;102180.06;4994967;28;20057;-74
2022/08/31 08:57:51;;;;;;;0.00;0.00;;;;;;;19.41;62.35;102178.19;5006665;28;20029;-74
2022/08/31 09:00:21;;;;;;;0.00;0.00;;;;;;;19.49;61.05;102171.00;4999211;28;20030;-74
2022/08/31 09:03:00;;;;;;;0.00;0.00;;;;;;;19.54;61.33;102151.50;5003144;28;20076;-76
2022/08/31 09:05:44;;;;;;;0.08;0.00;;;;;;;19.52;59.98;102166.25;5013920;28;20113;-76
2022/08/31 09:08:49;;;;;;;0.00;0.00;;;;;;;19.57;60.61;102170.28;5004801;28;20152;-77
2022/08/31 09:11:37;;;;;;;0.00;0.00;;;;;;;19.90;62.91;102170.78;5003277;28;20112;-77
2022/08/31 09:14:19;;;;;;;0.00;0.00;;;;;;;19.88;59.92;102170.06;5001323;28;20034;-77
2022/08/31 09:16:56;;;;;;;0.00;0.00;;;;;;;20.08;59.23;102170.84;5004625;28;20095;-72
2022/08/31 09:19:22;;;;;;;0.00;0.00;;;;;;;20.08;59.85;102167.28;5004564;28;20033;-78
2022/08/31 09:21:50;;;;;;;0.00;0.00;;;;;;;20.11;60.97;102171.56;5002318;28;20030;-77
2022/08/31 09:24:19;;;;;;;0.00;0.00;;;;;;;20.11;59.90;102157.94;5001645;28;20092;-79
2022/08/31 09:27:19;;;;;;;0.00;0.00;;;;;;;19.98;61.37;102164.59;5007918;28;20018;-80
2022/08/31 09:29:53;;;;;;;0.00;0.00;;;;;;;20.20;62.22;102162.50;4999086;28;20037;-79
2022/08/31 09:32:26;;;;;;;0.00;0.00;;;;;;;20.31;60.98;102162.28;5005051;28;20033;-75
2022/08/31 09:35:04;;;;;;;0.03;0.03;;;;;;;20.47;61.06;102153.44;5009400;28;20369;-77
2022/08/31 09:37:46;;;;;;;0.00;0.00;;;;;;;20.54;60.18;102161.84;5006219;28;20465;-73
2022/08/31 09:40:19;;;;;;;0.00;0.00;;;;;;;20.70;59.61;102161.16;4993049;28;20061;-82
2022/08/31 09:42:47;;;;;;;0.00;0.00;;;;;;;20.86;58.91;102156.94;5006031;28;20056;-75
2022/08/31 09:45:28;;;;;;;0.00;0.00;;;;;;;20.53;59.49;102146.50;4999967;28;20068;-74
2022/08/31 09:47:57;;;;;;;0.00;0.00;;;;;;;20.99;59.75;102149.19;5004610;28;20096;-71
2022/08/31 09:50:46;;;;;;;0.00;0.00;;;;;;;21.43;58.73;102146.50;5002853;28;20046;-75
2022/08/31 09:56:14;;;;;;;0.00;0.00;;;;;;;22.46;56.04;102153.03;4997330;28;20065;-74
2022/08/31 09:59:01;;;;;;;0.00;0.00;;;;;;;22.70;56.25;102147.81;5001150;28;20042;-78
2022/08/31 10:01:41;;;;;;;0.00;0.00;;;;;;;22.29;55.12;102156.72;5006446;28;20025;-84
2022/08/31 10:04:35;;;;;;;0.00;0.00;;;;;;;22.46;55.89;102150.31;5005423;28;20029;-74
2022/08/31 10:07:23;;;;;;;0.00;0.00;;;;;;;22.51;56.33;102155.28;5003909;28;20030;-75
2022/08/31 10:10:02;;;;;;;0.00;0.00;;;;;;;22.56;55.08;102161.09;4998320;28;20528;-75
2022/08/31 10:12:39;;;;;;;0.00;0.00;;;;;;;22.62;56.26;102162.34;5004115;28;20031;-75
2022/08/31 10:15:25;;;;;;;0.10;0.10;;;;;;;22.39;55.14;102156.56;5004699;28;20034;-73
2022/08/31 10:18:16;;;;;;;0.00;0.00;;;;;;;22.67;56.44;102153.59;5006010;28;20080;-79
2022/08/31 10:21:06;;;;;;;0.00;0.00;;;;;;;22.99;54.65;102151.94;5002001;28;20488;-76
2022/08/31 10:23:41;;;;;;;0.00;0.00;;;;;;;23.17;53.63;102140.81;5003216;28;20045;-75
2022/08/31 10:26:12;;;;;;;0.00;0.00;;;;;;;23.55;55.67;102145.78;5000385;28;20022;-74
2022/08/31 10:28:49;;;;;;;0.00;0.00;;;;;;;23.44;54.00;102144.25;5004647;28;20053;-74
2022/08/31 10:31:22;;;;;;;0.00;0.00;;;;;;;23.34;53.68;102138.94;5003463;28;20880;-75
2022/08/31 10:36:59;;;;;;;0.00;0.00;;;;;;;24.24;53.04;102137.81;5001584;28;20700;-77
2022/08/31 10:39:29;;;;;;;0.00;0.00;;;;;;;24.47;50.12;102141.66;5004408;28;20029;-75
2022/08/31 10:41:56;;;;;;;0.00;0.00;;;;;;;24.68;49.55;102155.59;5003301;28;20152;-79
2022/08/31 10:44:31;;;;;;;0.00;0.00;;;;;;;24.79;49.08;102137.03;5001860;28;20068;-74
2022/08/31 10:46:58;;;;;;;0.00;0.00;;;;;;;24.94;49.14;102143.41;5004111;28;20029;-74
2022/08/31 10:49:24;;;;;;;0.00;0.00;;;;;;;24.60;49.28;102136.44;5005002;28;20029;-78
2022/08/31 10:51:58;;;;;;;0.00;0.00;;;;;;;24.76;48.15;102146.50;5003132;28;20030;-79
2022/08/31 10:54:39;;;;;;;0.00;0.00;;;;;;;25.11;49.15;102149.63;4998981;28;20032;-77
2022/08/31 10:57:18;;;;;;;0.00;0.00;;;;;;;25.35;48.68;102135.88;4999890;28;20036;-76
2022/08/31 11:03:16;;;;;;;0.00;0.00;;;;;;;25.67;47.40;102145.69;5001742;28;20376;-75
2022/08/31 11:05:46;;;;;;;0.00;0.00;;;;;;;25.39;46.08;102145.47;5001313;28;20824;-74
2022/08/31 11:08:18;;;;;;;0.00;0.00;;;;;;;25.14;47.68;102137.44;5006873;28;20309;-75
2022/08/31 11:10:50;;;;;;;0.10;0.10;;;;;;;25.15;47.34;102139.16;5001233;28;20041;-81
2022/08/31 11:13:45;;;;;;;0.03;0.00;;;;;;;24.20;48.20;102128.28;5016382;28;20032;-70
2022/08/31 11:16:30;;;;;;;0.00;0.00;;;;;;;24.48;49.15;102119.53;4994955;28;20038;-78
2022/08/31 11:18:58;;;;;;;0.00;0.00;;;;;;;25.18;49.92;102132.41;5004715;28;20069;-77
2022/08/31 11:21:43;;;;;;;0.00;0.00;;;;;;;25.14;47.70;102142.94;5004277;28;20037;-72
2022/08/31 11:24:47;;;;;;;0.00;0.00;;;;;;;25.20;47.33;102128.44;5006650;28;20524;-83
2022/08/31 11:27:17;;;;;;;0.00;0.00;;;;;;;24.84;47.50;102129.09;4995066;28;20443;-74
2022/08/31 11:29:50;;;;;;;0.00;0.00;;;;;;;25.26;47.79;102135.09;5000971;28;20041;-74
2022/08/31 11:32:33;;;;;;;0.00;0.00;;;;;;;25.52;46.67;102120.94;5004089;28;20038;-70
2022/08/31 11:35:07;;;;;;;0.00;0.00;;;;;;;25.89;47.05;102127.41;5003888;28;20483;-79
2022/08/31 11:37:54;;;;;;;0.00;0.00;;;;;;;25.53;44.92;102128.16;5005755;28;20460;-78
2022/08/31 11:40:42;;;;;;;0.00;0.00;;;;;;;26.27;46.33;102109.91;5005181;28;20072;-80
2022/08/31 11:43:34;;;;;;;0.00;0.00;;;;;;;25.68;45.93;102114.41;5003405;28;20392;-78
2022/08/31 11:46:24;;;;;;;0.00;0.00;;;;;;;25.60;45.59;102115.34;5003104;28;20029;-69
2022/08/31 11:48:49;;;;;;;0.00;0.00;;;;;;;25.81;45.83;102116.50;5001360;28;20116;-78
2022/08/31 11:51:44;;;;;;;0.00;0.00;;;;;;;25.98;45.37;102113.53;4998672;28;20461;-73
2022/08/31 11:54:40;;;;;;;0.00;0.00;;;;;;;26.83;42.67;102100.16;5002888;28;20030;-77